createdAt,value
2022-11-28T00:04:15.837Z,11.65
2022-11-28T00:09:20.973Z,11.65
2022-11-28T00:14:25.251Z,10.52
2022-11-28T00:19:29.192Z,8.55
2022-11-28T00:24:31.758Z,10.88
2022-11-28T00:29:35.715Z,9.68
2022-11-28T00:34:38.261Z,10.55
2022-11-28T00:39:40.865Z,11.07
2022-11-28T00:44:44.887Z,10.88
2022-11-28T00:49:47.519Z,11.65
2022-11-28T00:54:50.263Z,10.15
2022-11-28T00:59:54.188Z,9.38
2022-11-28T01:04:56.763Z,7.75
2022-11-28T01:09:59.292Z,9.80
2022-11-28T01:15:03.947Z,9.65
2022-11-28T01:20:08.686Z,9.52
2022-11-28T01:25:12.494Z,10.73
2022-11-28T01:30:16.771Z,10.90
2022-11-28T01:35:19.606Z,9.60
2022-11-28T01:40:22.627Z,11.40
2022-11-28T01:45:30.870Z,9.45
2022-11-28T01:50:36.057Z,10.18
2022-11-28T01:55:43.977Z,11.65
2022-11-28T02:00:49.883Z,8.63
2022-11-28T02:05:53.636Z,10.88
2022-11-28T02:11:22.860Z,9.20
2022-11-28T02:16:49.120Z,8.27
2022-11-28T02:22:01.425Z,9.27
2022-11-28T02:27:25.035Z,10.65
2022-11-28T02:32:38.064Z,9.80
2022-11-28T02:37:49.467Z,8.98
2022-11-28T02:43:03.644Z,11.88
2022-11-28T02:48:12.227Z,7.63
2022-11-28T02:53:17.587Z,7.90
2022-11-28T02:58:20.207Z,9.65
2022-11-28T03:03:49.498Z,10.82
2022-11-28T03:09:07.327Z,8.63
2022-11-28T03:14:20.966Z,8.57
2022-11-28T03:19:31.298Z,8.38
2022-11-28T03:24:38.801Z,8.80
2022-11-28T03:29:45.211Z,7.45
2022-11-28T03:34:54.917Z,10.07
2022-11-28T03:40:03.406Z,9.98
2022-11-28T03:45:09.810Z,7.95
2022-11-28T03:50:18.824Z,9.52
2022-11-28T03:55:24.582Z,8.55
2022-11-28T04:00:27.504Z,8.30
2022-11-28T04:05:41.910Z,9.30
2022-11-28T04:10:47.085Z,8.93
2022-11-28T04:15:56.862Z,8.35
2022-11-28T04:21:07.341Z,10.63
2022-11-28T04:26:15.670Z,10.93
2022-11-28T04:31:24.969Z,8.30
2022-11-28T04:36:31.280Z,8.07
2022-11-28T04:41:37.045Z,9.07
2022-11-28T04:46:44.164Z,10.88
2022-11-28T04:51:55.435Z,9.15
2022-11-28T04:57:03.443Z,7.80
2022-11-28T05:02:07.300Z,8.85
2022-11-28T05:07:11.300Z,9.65
2022-11-28T05:12:13.868Z,11.32
2022-11-28T05:17:16.417Z,10.95
2022-11-28T05:22:20.314Z,10.30
2022-11-28T05:27:22.920Z,10.38
2022-11-28T05:32:25.500Z,7.40
2022-11-28T05:37:29.619Z,10.52
2022-11-28T05:42:33.848Z,6.50
2022-11-28T05:47:36.440Z,6.65
2022-11-28T05:52:40.528Z,12.98
2022-11-28T05:57:43.074Z,7.95
2022-11-28T06:02:45.778Z,9.35
2022-11-28T06:07:49.747Z,8.80
2022-11-28T06:12:52.353Z,12.23
2022-11-28T06:17:54.970Z,10.43
2022-11-28T06:22:59.053Z,10.70
2022-11-28T06:28:01.615Z,9.27
2022-11-28T06:33:04.205Z,10.27
2022-11-28T06:38:14.033Z,7.57
2022-11-28T06:43:17.166Z,9.35
2022-11-28T06:48:20.153Z,10.77
2022-11-28T06:53:26.140Z,17.08
2022-11-28T06:58:35.147Z,18.38
2022-11-28T07:03:39.893Z,12.43
2022-11-28T07:08:44.371Z,13.00
2022-11-28T07:13:47.929Z,21.52
2022-11-28T07:18:50.964Z,19.23
2022-11-28T07:23:55.120Z,14.93
2022-11-28T07:28:59.693Z,11.43
2022-11-28T07:39:09.395Z,15.23
2022-11-28T07:44:13.017Z,22.90
2022-11-28T07:49:16.211Z,14.23
2022-11-28T07:54:20.181Z,15.82
2022-11-28T07:59:22.809Z,15.35
2022-11-28T08:04:25.653Z,15.05
2022-11-28T08:09:29.658Z,15.63
2022-11-28T08:14:32.341Z,13.63
2022-11-28T08:19:35.580Z,18.45
2022-11-28T08:24:41.226Z,13.25
2022-11-28T08:29:46.162Z,11.85
2022-11-28T08:34:51.803Z,16.88
2022-11-28T08:39:55.746Z,12.77
2022-11-28T08:44:58.387Z,18.77
2022-11-28T08:50:00.955Z,13.45
2022-11-28T08:55:05.979Z,10.25
2022-11-28T09:00:09.479Z,13.20
2022-11-28T09:05:12.097Z,14.88
2022-11-28T09:10:16.207Z,14.02
2022-11-28T09:15:19.246Z,9.27
2022-11-28T09:20:22.203Z,13.15
2022-11-28T09:25:26.356Z,12.40
2022-11-28T09:30:29.446Z,16.75
2022-11-28T09:35:32.049Z,10.15
2022-11-28T09:40:39.623Z,11.57
2022-11-28T09:45:42.911Z,11.18
2022-11-28T09:50:47.703Z,11.45
2022-11-28T09:55:55.588Z,9.63
2022-11-28T10:01:08.155Z,10.13
2022-11-28T10:06:20.121Z,13.30
2022-11-28T10:11:36.791Z,13.90
2022-11-28T10:16:52.073Z,11.05
2022-11-28T10:21:59.535Z,8.73
2022-11-28T10:27:05.750Z,11.48
2022-11-28T10:32:12.871Z,10.20
2022-11-28T10:37:20.733Z,7.57
2022-11-28T10:42:29.700Z,10.18
2022-11-28T10:47:48.784Z,10.10
2022-11-28T10:52:59.041Z,8.27
2022-11-28T10:58:12.001Z,8.32
2022-11-28T11:03:18.327Z,7.68
2022-11-28T11:08:23.047Z,6.45
2022-11-28T11:13:29.168Z,6.90
2022-11-28T11:18:36.123Z,6.38
2022-11-28T11:23:38.811Z,7.40
2022-11-28T11:28:46.059Z,8.30
2022-11-28T11:33:51.437Z,11.65
2022-11-28T11:39:06.746Z,7.75
2022-11-28T11:44:34.172Z,9.75
2022-11-28T11:49:39.269Z,9.57
2022-11-28T11:54:56.281Z,7.75
2022-11-28T12:00:04.612Z,7.35
2022-11-28T12:05:16.078Z,8.43
2022-11-28T12:10:22.412Z,10.32
2022-11-28T12:15:36.113Z,7.47
2022-11-28T12:20:49.283Z,7.87
2022-11-28T12:25:58.877Z,10.23
2022-11-28T12:31:16.394Z,8.35
2022-11-28T12:36:26.953Z,8.32
2022-11-28T12:41:54.812Z,8.43
2022-11-28T12:47:05.993Z,6.82
2022-11-28T12:52:18.290Z,8.77
2022-11-28T12:57:33.431Z,15.23
2022-11-28T13:02:51.913Z,15.15
2022-11-28T13:08:13.237Z,9.23
2022-11-28T13:13:21.002Z,11.82
2022-11-28T13:18:35.557Z,12.43
2022-11-28T13:23:44.672Z,8.85
2022-11-28T13:28:53.695Z,9.40
2022-11-28T13:33:58.772Z,11.02
2022-11-28T13:39:12.923Z,11.45
2022-11-28T13:44:22.705Z,12.02
2022-11-28T13:49:29.645Z,11.55
2022-11-28T13:54:35.572Z,10.55
2022-11-28T13:59:39.538Z,11.32
2022-11-28T14:04:47.873Z,12.13
2022-11-28T14:10:02.161Z,11.15
2022-11-28T14:15:15.517Z,13.20
2022-11-28T14:20:31.076Z,12.32
2022-11-28T14:25:39.931Z,15.95
2022-11-28T14:30:45.427Z,12.95
2022-11-28T14:36:34.016Z,13.15
2022-11-28T14:42:10.783Z,14.65
2022-11-28T14:47:17.367Z,14.18
2022-11-28T14:52:38.366Z,17.20
2022-11-28T14:57:59.007Z,12.20
2022-11-28T15:09:05.490Z,14.52
2022-11-28T15:14:20.574Z,10.75
2022-11-28T15:19:27.057Z,12.52
2022-11-28T15:24:33.054Z,13.23
2022-11-28T15:29:36.846Z,17.45
2022-11-28T15:34:39.944Z,12.90
2022-11-28T15:39:47.516Z,15.25
2022-11-28T15:44:55.740Z,13.75
2022-11-28T15:50:03.956Z,13.57
2022-11-28T15:55:17.513Z,13.85
2022-11-28T16:00:22.103Z,16.33
2022-11-28T16:10:33.583Z,20.60
2022-11-28T16:15:37.257Z,16.48
2022-11-28T16:20:39.933Z,16.10
2022-11-28T16:25:44.090Z,14.55
2022-11-28T16:30:51.136Z,15.07
2022-11-28T16:35:55.759Z,16.85
2022-11-28T16:46:07.398Z,18.70
2022-11-28T16:51:32.658Z,15.65
2022-11-28T16:56:45.212Z,26.63
2022-11-28T17:01:52.634Z,21.42
2022-11-28T17:06:57.441Z,19.83
2022-11-28T17:12:05.818Z,17.02
2022-11-28T17:17:13.297Z,16.55
2022-11-28T17:22:18.195Z,15.90
2022-11-28T17:27:22.176Z,15.63
2022-11-28T17:32:25.216Z,15.02
2022-11-28T17:37:27.864Z,17.85
2022-11-28T17:42:31.941Z,18.92
2022-11-28T17:47:34.581Z,19.05
2022-11-28T17:52:37.301Z,18.02
2022-11-28T17:57:42.300Z,18.15
2022-11-28T18:02:45.005Z,18.25
2022-11-28T18:07:47.712Z,16.55
2022-11-28T18:12:52.365Z,16.60
2022-11-28T18:22:58.307Z,22.70
2022-11-28T18:28:02.250Z,17.55
2022-11-28T18:33:05.008Z,20.60
2022-11-28T18:38:09.021Z,21.08
2022-11-28T18:43:13.198Z,17.60
2022-11-28T18:48:15.745Z,18.10
2022-11-28T18:53:18.403Z,22.02
2022-11-28T18:58:22.370Z,19.90
2022-11-28T19:03:24.921Z,14.02
2022-11-28T19:08:27.657Z,17.33
2022-11-28T19:13:31.565Z,18.27
2022-11-28T19:18:34.205Z,18.02
2022-11-28T19:23:36.796Z,15.23
2022-11-28T19:28:42.227Z,17.23
2022-11-28T19:33:45.394Z,17.15
2022-11-28T19:38:48.031Z,15.73
2022-11-28T19:43:52.615Z,14.90
2022-11-28T19:54:03.144Z,16.48
2022-11-28T19:59:07.747Z,17.10
2022-11-28T20:04:10.873Z,12.50
2022-11-28T20:09:14.267Z,15.70
2022-11-28T20:14:19.427Z,19.30
2022-11-28T20:19:22.803Z,16.88
2022-11-28T20:24:25.835Z,17.67
2022-11-28T20:29:29.855Z,17.85
2022-11-28T20:34:32.843Z,19.95
2022-11-28T20:39:35.435Z,20.00
2022-11-28T20:44:39.391Z,19.75
2022-11-28T20:49:42.268Z,17.70
2022-11-28T20:54:45.130Z,17.45
2022-11-28T20:59:49.134Z,18.95
2022-11-28T21:04:51.776Z,18.05
2022-11-28T21:10:00.840Z,18.92
2022-11-28T21:15:05.464Z,19.83
2022-11-28T21:25:11.084Z,18.40
2022-11-28T21:30:15.210Z,18.45
2022-11-28T21:35:17.817Z,14.27
2022-11-28T21:40:20.554Z,21.48
2022-11-28T21:45:24.857Z,20.65
2022-11-28T21:50:27.667Z,14.95
2022-11-28T21:55:30.272Z,23.65
2022-11-28T22:00:52.586Z,19.48
2022-11-28T22:06:01.069Z,20.52
2022-11-28T22:11:04.903Z,20.80
2022-11-28T22:16:14.817Z,17.25
2022-11-28T22:26:40.410Z,22.30
2022-11-28T22:31:44.590Z,20.20
2022-11-28T22:36:47.202Z,16.58
2022-11-28T22:41:49.889Z,23.40
2022-11-28T22:46:53.924Z,21.73
2022-11-28T22:51:56.780Z,20.75
2022-11-28T22:56:59.955Z,20.80
2022-11-28T23:02:04.173Z,21.42
2022-11-28T23:07:06.841Z,16.30
2022-11-28T23:12:09.578Z,22.55
2022-11-28T23:17:13.670Z,21.13
2022-11-28T23:22:16.260Z,21.15
2022-11-28T23:27:18.871Z,22.27
2022-11-28T23:32:22.782Z,31.08
2022-11-28T23:37:25.546Z,21.65
2022-11-28T23:42:28.196Z,21.30
2022-11-28T23:47:32.555Z,19.17
2022-11-28T23:52:35.144Z,17.17
2022-11-28T23:57:37.720Z,21.02
